sensor_id;sensor_type;location;lat;lon;timestamp;P1;durP1;ratioP1;P2;durP2;ratioP2
42098;SDS011;27758;55.900;8.516;2023-02-01T00:01:38;38.28;;;7.72;;
42098;SDS011;27758;55.900;8.516;2023-02-01T00:04:03;46.00;;;8.65;;
42098;SDS011;27758;55.900;8.516;2023-02-01T00:06:29;41.42;;;7.53;;
42098;SDS011;27758;55.900;8.516;2023-02-01T00:08:55;26.75;;;6.40;;
42098;SDS011;27758;55.900;8.516;2023-02-01T00:11:21;37.65;;;7.95;;
42098;SDS011;27758;55.900;8.516;2023-02-01T00:13:48;34.33;;;7.15;;
42098;SDS011;27758;55.900;8.516;2023-02-01T00:16:23;48.42;;;7.35;;
42098;SDS011;27758;55.900;8.516;2023-02-01T00:19:01;34.88;;;6.15;;
42098;SDS011;27758;55.900;8.516;2023-02-01T00:21:29;36.55;;;7.18;;
42098;SDS011;27758;55.900;8.516;2023-02-01T00:23:55;35.05;;;6.88;;
42098;SDS011;27758;55.900;8.516;2023-02-01T00:26:32;28.10;;;5.93;;
42098;SDS011;27758;55.900;8.516;2023-02-01T00:28:59;37.08;;;6.28;;
42098;SDS011;27758;55.900;8.516;2023-02-01T00:31:26;34.47;;;6.03;;
42098;SDS011;27758;55.900;8.516;2023-02-01T00:33:52;41.95;;;8.25;;
42098;SDS011;27758;55.900;8.516;2023-02-01T00:36:18;28.35;;;8.02;;
42098;SDS011;27758;55.900;8.516;2023-02-01T00:38:44;26.40;;;5.50;;
42098;SDS011;27758;55.900;8.516;2023-02-01T00:41:13;25.13;;;4.20;;
42098;SDS011;27758;55.900;8.516;2023-02-01T00:43:44;24.08;;;4.57;;
42098;SDS011;27758;55.900;8.516;2023-02-01T00:46:11;32.20;;;5.47;;
42098;SDS011;27758;55.900;8.516;2023-02-01T00:48:38;28.23;;;5.30;;
42098;SDS011;27758;55.900;8.516;2023-02-01T00:51:05;23.73;;;4.78;;
42098;SDS011;27758;55.900;8.516;2023-02-01T00:53:33;25.40;;;4.82;;
42098;SDS011;27758;55.900;8.516;2023-02-01T00:55:59;21.27;;;5.20;;
42098;SDS011;27758;55.900;8.516;2023-02-01T00:58:25;20.95;;;3.58;;
42098;SDS011;27758;55.900;8.516;2023-02-01T01:01:02;29.70;;;4.35;;
42098;SDS011;27758;55.900;8.516;2023-02-01T01:03:44;29.35;;;5.00;;
42098;SDS011;27758;55.900;8.516;2023-02-01T01:06:12;31.15;;;4.70;;
42098;SDS011;27758;55.900;8.516;2023-02-01T01:08:43;24.45;;;4.75;;
42098;SDS011;27758;55.900;8.516;2023-02-01T01:11:16;34.40;;;5.28;;
42098;SDS011;27758;55.900;8.516;2023-02-01T01:13:46;19.73;;;6.15;;
42098;SDS011;27758;55.900;8.516;2023-02-01T01:16:13;37.40;;;7.60;;
42098;SDS011;27758;55.900;8.516;2023-02-01T01:18:39;22.90;;;4.93;;
42098;SDS011;27758;55.900;8.516;2023-02-01T01:21:05;22.27;;;4.13;;
42098;SDS011;27758;55.900;8.516;2023-02-01T01:23:33;31.33;;;4.93;;
42098;SDS011;27758;55.900;8.516;2023-02-01T01:26:00;25.83;;;4.22;;
42098;SDS011;27758;55.900;8.516;2023-02-01T01:28:29;32.60;;;5.30;;
42098;SDS011;27758;55.900;8.516;2023-02-01T01:30:55;30.95;;;5.22;;
42098;SDS011;27758;55.900;8.516;2023-02-01T01:33:20;30.88;;;6.13;;
42098;SDS011;27758;55.900;8.516;2023-02-01T01:35:46;39.13;;;8.75;;
42098;SDS011;27758;55.900;8.516;2023-02-01T01:38:12;41.67;;;6.97;;
42098;SDS011;27758;55.900;8.516;2023-02-01T01:40:38;45.08;;;7.60;;
42098;SDS011;27758;55.900;8.516;2023-02-01T01:43:05;41.33;;;7.65;;
42098;SDS011;27758;55.900;8.516;2023-02-01T01:45:38;38.35;;;6.50;;
42098;SDS011;27758;55.900;8.516;2023-02-01T01:48:05;27.38;;;5.90;;
42098;SDS011;27758;55.900;8.516;2023-02-01T01:50:40;35.83;;;8.02;;
42098;SDS011;27758;55.900;8.516;2023-02-01T01:53:18;37.92;;;7.97;;
42098;SDS011;27758;55.900;8.516;2023-02-01T01:55:49;36.55;;;7.35;;
42098;SDS011;27758;55.900;8.516;2023-02-01T01:58:21;46.30;;;8.02;;
42098;SDS011;27758;55.900;8.516;2023-02-01T02:00:50;36.70;;;6.68;;
42098;SDS011;27758;55.900;8.516;2023-02-01T02:05:42;38.75;;;8.77;;
42098;SDS011;27758;55.900;8.516;2023-02-01T02:08:08;45.95;;;6.85;;
42098;SDS011;27758;55.900;8.516;2023-02-01T02:10:35;39.83;;;7.35;;
42098;SDS011;27758;55.900;8.516;2023-02-01T02:13:20;36.45;;;7.07;;
42098;SDS011;27758;55.900;8.516;2023-02-01T02:15:54;33.95;;;7.50;;
42098;SDS011;27758;55.900;8.516;2023-02-01T02:18:39;30.70;;;6.70;;
42098;SDS011;27758;55.900;8.516;2023-02-01T02:38:02;35.70;;;7.78;;
42098;SDS011;27758;55.900;8.516;2023-02-01T02:41:03;38.60;;;7.63;;
42098;SDS011;27758;55.900;8.516;2023-02-01T02:44:53;46.65;;;7.88;;
42098;SDS011;27758;55.900;8.516;2023-02-01T02:47:45;45.20;;;7.10;;
42098;SDS011;27758;55.900;8.516;2023-02-01T02:56:49;43.65;;;6.85;;
42098;SDS011;27758;55.900;8.516;2023-02-01T02:59:35;19.77;;;3.80;;
42098;SDS011;27758;55.900;8.516;2023-02-01T03:02:23;15.23;;;4.32;;
42098;SDS011;27758;55.900;8.516;2023-02-01T03:05:11;15.75;;;2.72;;
42098;SDS011;27758;55.900;8.516;2023-02-01T03:21:10;24.40;;;3.30;;
42098;SDS011;27758;55.900;8.516;2023-02-01T03:23:41;14.38;;;2.65;;
42098;SDS011;27758;55.900;8.516;2023-02-01T03:26:09;14.13;;;3.42;;
42098;SDS011;27758;55.900;8.516;2023-02-01T03:28:38;24.13;;;3.83;;
42098;SDS011;27758;55.900;8.516;2023-02-01T03:31:09;24.75;;;4.13;;
42098;SDS011;27758;55.900;8.516;2023-02-01T03:33:35;40.20;;;5.35;;
42098;SDS011;27758;55.900;8.516;2023-02-01T03:41:03;34.10;;;7.45;;
42098;SDS011;27758;55.900;8.516;2023-02-01T03:43:32;21.88;;;3.80;;
42098;SDS011;27758;55.900;8.516;2023-02-01T03:46:02;27.08;;;5.47;;
42098;SDS011;27758;55.900;8.516;2023-02-01T03:48:31;26.55;;;4.25;;
42098;SDS011;27758;55.900;8.516;2023-02-01T03:51:00;41.47;;;7.53;;
42098;SDS011;27758;55.900;8.516;2023-02-01T03:53:29;26.55;;;4.90;;
42098;SDS011;27758;55.900;8.516;2023-02-01T03:55:58;27.70;;;4.90;;
42098;SDS011;27758;55.900;8.516;2023-02-01T03:58:23;32.75;;;5.20;;
42098;SDS011;27758;55.900;8.516;2023-02-01T04:00:51;31.92;;;6.75;;
42098;SDS011;27758;55.900;8.516;2023-02-01T04:03:24;19.73;;;3.55;;
42098;SDS011;27758;55.900;8.516;2023-02-01T04:05:51;12.85;;;2.78;;
42098;SDS011;27758;55.900;8.516;2023-02-01T04:08:19;14.30;;;3.78;;
42098;SDS011;27758;55.900;8.516;2023-02-01T04:10:45;13.27;;;2.05;;
42098;SDS011;27758;55.900;8.516;2023-02-01T04:13:11;14.80;;;2.58;;
42098;SDS011;27758;55.900;8.516;2023-02-01T04:15:37;17.95;;;3.78;;
42098;SDS011;27758;55.900;8.516;2023-02-01T04:18:03;12.07;;;2.38;;
42098;SDS011;27758;55.900;8.516;2023-02-01T04:20:29;14.20;;;2.95;;
42098;SDS011;27758;55.900;8.516;2023-02-01T04:22:55;12.85;;;2.28;;
42098;SDS011;27758;55.900;8.516;2023-02-01T04:25:21;10.07;;;2.40;;
42098;SDS011;27758;55.900;8.516;2023-02-01T04:27:46;13.55;;;2.40;;
42098;SDS011;27758;55.900;8.516;2023-02-01T04:30:12;14.50;;;2.22;;
42098;SDS011;27758;55.900;8.516;2023-02-01T04:32:39;9.55;;;2.28;;
42098;SDS011;27758;55.900;8.516;2023-02-01T04:35:05;11.05;;;2.55;;
42098;SDS011;27758;55.900;8.516;2023-02-01T04:37:31;17.75;;;3.22;;
42098;SDS011;27758;55.900;8.516;2023-02-01T04:39:57;15.40;;;3.35;;
42098;SDS011;27758;55.900;8.516;2023-02-01T04:42:23;18.23;;;3.15;;
42098;SDS011;27758;55.900;8.516;2023-02-01T04:44:49;16.63;;;3.42;;
42098;SDS011;27758;55.900;8.516;2023-02-01T04:47:14;16.77;;;3.78;;
42098;SDS011;27758;55.900;8.516;2023-02-01T04:49:40;20.90;;;4.35;;
42098;SDS011;27758;55.900;8.516;2023-02-01T04:52:07;32.10;;;4.75;;
42098;SDS011;27758;55.900;8.516;2023-02-01T04:54:32;24.25;;;3.88;;
42098;SDS011;27758;55.900;8.516;2023-02-01T04:56:58;36.58;;;5.95;;
42098;SDS011;27758;55.900;8.516;2023-02-01T04:59:25;28.33;;;4.95;;
42098;SDS011;27758;55.900;8.516;2023-02-01T05:01:50;34.30;;;5.82;;
42098;SDS011;27758;55.900;8.516;2023-02-01T05:04:16;33.63;;;6.68;;
42098;SDS011;27758;55.900;8.516;2023-02-01T05:06:45;42.05;;;7.00;;
42098;SDS011;27758;55.900;8.516;2023-02-01T05:09:11;27.40;;;6.40;;
42098;SDS011;27758;55.900;8.516;2023-02-01T05:11:37;30.55;;;5.38;;
42098;SDS011;27758;55.900;8.516;2023-02-01T05:14:21;25.40;;;4.97;;
42098;SDS011;27758;55.900;8.516;2023-02-01T05:16:47;19.05;;;3.55;;
42098;SDS011;27758;55.900;8.516;2023-02-01T05:19:13;24.83;;;4.88;;
42098;SDS011;27758;55.900;8.516;2023-02-01T05:21:39;22.95;;;4.47;;
42098;SDS011;27758;55.900;8.516;2023-02-01T05:24:04;20.45;;;3.42;;
42098;SDS011;27758;55.900;8.516;2023-02-01T05:26:36;17.83;;;2.85;;
42098;SDS011;27758;55.900;8.516;2023-02-01T05:29:03;13.65;;;2.15;;
42098;SDS011;27758;55.900;8.516;2023-02-01T05:31:29;13.45;;;2.83;;
42098;SDS011;27758;55.900;8.516;2023-02-01T05:33:55;11.07;;;2.25;;
42098;SDS011;27758;55.900;8.516;2023-02-01T05:36:21;12.65;;;2.15;;
42098;SDS011;27758;55.900;8.516;2023-02-01T05:38:47;12.25;;;1.95;;
42098;SDS011;27758;55.900;8.516;2023-02-01T05:41:12;9.65;;;1.73;;
42098;SDS011;27758;55.900;8.516;2023-02-01T05:43:38;10.20;;;1.73;;
42098;SDS011;27758;55.900;8.516;2023-02-01T05:46:04;12.30;;;2.13;;
42098;SDS011;27758;55.900;8.516;2023-02-01T05:48:29;12.98;;;2.65;;
42098;SDS011;27758;55.900;8.516;2023-02-01T05:50:55;18.40;;;2.92;;
42098;SDS011;27758;55.900;8.516;2023-02-01T05:53:21;21.45;;;3.38;;
42098;SDS011;27758;55.900;8.516;2023-02-01T05:55:47;20.50;;;4.13;;
42098;SDS011;27758;55.900;8.516;2023-02-01T05:58:12;24.05;;;3.45;;
42098;SDS011;27758;55.900;8.516;2023-02-01T06:00:38;24.25;;;3.90;;
42098;SDS011;27758;55.900;8.516;2023-02-01T06:03:05;21.73;;;4.25;;
42098;SDS011;27758;55.900;8.516;2023-02-01T06:05:31;26.95;;;4.25;;
42098;SDS011;27758;55.900;8.516;2023-02-01T06:07:56;30.65;;;4.68;;
42098;SDS011;27758;55.900;8.516;2023-02-01T06:10:23;30.80;;;4.68;;
42098;SDS011;27758;55.900;8.516;2023-02-01T06:12:49;36.05;;;7.53;;
42098;SDS011;27758;55.900;8.516;2023-02-01T06:15:14;24.85;;;5.28;;
42098;SDS011;27758;55.900;8.516;2023-02-01T06:17:44;34.35;;;6.47;;
42098;SDS011;27758;55.900;8.516;2023-02-01T06:20:11;18.80;;;4.15;;
42098;SDS011;27758;55.900;8.516;2023-02-01T06:22:38;18.90;;;2.50;;
42098;SDS011;27758;55.900;8.516;2023-02-01T06:25:05;14.95;;;2.20;;
42098;SDS011;27758;55.900;8.516;2023-02-01T06:27:33;11.10;;;2.95;;
42098;SDS011;27758;55.900;8.516;2023-02-01T06:29:59;18.83;;;3.88;;
42098;SDS011;27758;55.900;8.516;2023-02-01T06:32:25;16.95;;;2.40;;
42098;SDS011;27758;55.900;8.516;2023-02-01T06:34:51;17.40;;;4.35;;
42098;SDS011;27758;55.900;8.516;2023-02-01T06:37:21;14.05;;;3.05;;
42098;SDS011;27758;55.900;8.516;2023-02-01T06:39:48;17.85;;;3.05;;
42098;SDS011;27758;55.900;8.516;2023-02-01T06:42:14;18.25;;;3.17;;
42098;SDS011;27758;55.900;8.516;2023-02-01T06:44:39;20.88;;;3.75;;
42098;SDS011;27758;55.900;8.516;2023-02-01T06:47:05;19.98;;;3.10;;
42098;SDS011;27758;55.900;8.516;2023-02-01T06:49:32;25.95;;;3.72;;
42098;SDS011;27758;55.900;8.516;2023-02-01T06:51:57;24.20;;;4.03;;
42098;SDS011;27758;55.900;8.516;2023-02-01T06:54:25;13.93;;;3.10;;
42098;SDS011;27758;55.900;8.516;2023-02-01T06:56:51;19.35;;;3.90;;
42098;SDS011;27758;55.900;8.516;2023-02-01T06:59:17;28.92;;;4.78;;
42098;SDS011;27758;55.900;8.516;2023-02-01T07:01:43;26.35;;;4.75;;
42098;SDS011;27758;55.900;8.516;2023-02-01T07:04:09;32.35;;;5.43;;
42098;SDS011;27758;55.900;8.516;2023-02-01T07:09:04;22.23;;;5.07;;
42098;SDS011;27758;55.900;8.516;2023-02-01T07:11:30;34.88;;;5.20;;
42098;SDS011;27758;55.900;8.516;2023-02-01T07:13:57;33.95;;;5.70;;
42098;SDS011;27758;55.900;8.516;2023-02-01T07:16:23;24.20;;;4.78;;
42098;SDS011;27758;55.900;8.516;2023-02-01T07:18:49;39.08;;;6.65;;
42098;SDS011;27758;55.900;8.516;2023-02-01T07:21:16;29.70;;;5.53;;
42098;SDS011;27758;55.900;8.516;2023-02-01T07:23:42;34.10;;;6.40;;
42098;SDS011;27758;55.900;8.516;2023-02-01T07:26:09;41.90;;;6.28;;
42098;SDS011;27758;55.900;8.516;2023-02-01T07:28:37;45.47;;;7.28;;
42098;SDS011;27758;55.900;8.516;2023-02-01T07:31:04;48.42;;;7.22;;
42098;SDS011;27758;55.900;8.516;2023-02-01T07:33:32;49.88;;;8.05;;
42098;SDS011;27758;55.900;8.516;2023-02-01T07:36:00;48.05;;;7.25;;
42098;SDS011;27758;55.900;8.516;2023-02-01T07:38:27;45.63;;;6.97;;
42098;SDS011;27758;55.900;8.516;2023-02-01T07:40:58;26.02;;;5.07;;
42098;SDS011;27758;55.900;8.516;2023-02-01T07:43:29;23.90;;;3.10;;
42098;SDS011;27758;55.900;8.516;2023-02-01T07:45:55;21.60;;;5.05;;
42098;SDS011;27758;55.900;8.516;2023-02-01T07:48:22;17.02;;;3.92;;
42098;SDS011;27758;55.900;8.516;2023-02-01T07:50:56;22.90;;;4.15;;
42098;SDS011;27758;55.900;8.516;2023-02-01T07:53:41;24.10;;;4.40;;
42098;SDS011;27758;55.900;8.516;2023-02-01T07:56:12;36.92;;;5.88;;
42098;SDS011;27758;55.900;8.516;2023-02-01T07:58:42;29.40;;;4.55;;
42098;SDS011;27758;55.900;8.516;2023-02-01T08:01:13;36.13;;;6.88;;
42098;SDS011;27758;55.900;8.516;2023-02-01T08:03:54;29.20;;;5.05;;
42098;SDS011;27758;55.900;8.516;2023-02-01T08:06:27;38.78;;;5.68;;
42098;SDS011;27758;55.900;8.516;2023-02-01T08:08:56;29.88;;;5.40;;
42098;SDS011;27758;55.900;8.516;2023-02-01T08:11:22;21.25;;;4.47;;
42098;SDS011;27758;55.900;8.516;2023-02-01T08:13:49;21.88;;;4.80;;
42098;SDS011;27758;55.900;8.516;2023-02-01T08:16:15;16.73;;;3.88;;
42098;SDS011;27758;55.900;8.516;2023-02-01T08:18:42;17.10;;;3.10;;
42098;SDS011;27758;55.900;8.516;2023-02-01T08:21:09;18.48;;;3.30;;
42098;SDS011;27758;55.900;8.516;2023-02-01T08:23:36;17.48;;;3.25;;
42098;SDS011;27758;55.900;8.516;2023-02-01T08:26:13;28.65;;;5.35;;
42098;SDS011;27758;55.900;8.516;2023-02-01T08:28:40;19.73;;;2.63;;
42098;SDS011;27758;55.900;8.516;2023-02-01T08:31:09;8.75;;;1.92;;
42098;SDS011;27758;55.900;8.516;2023-02-01T08:33:36;10.07;;;2.60;;
42098;SDS011;27758;55.900;8.516;2023-02-01T08:36:05;9.45;;;2.20;;
42098;SDS011;27758;55.900;8.516;2023-02-01T08:38:32;12.80;;;1.77;;
42098;SDS011;27758;55.900;8.516;2023-02-01T08:41:03;13.95;;;2.50;;
42098;SDS011;27758;55.900;8.516;2023-02-01T08:43:33;13.80;;;2.28;;
42098;SDS011;27758;55.900;8.516;2023-02-01T08:45:59;12.52;;;2.55;;
42098;SDS011;27758;55.900;8.516;2023-02-01T08:48:24;19.80;;;3.95;;
42098;SDS011;27758;55.900;8.516;2023-02-01T08:50:50;24.25;;;4.07;;
42098;SDS011;27758;55.900;8.516;2023-02-01T08:53:16;15.00;;;2.70;;
42098;SDS011;27758;55.900;8.516;2023-02-01T08:55:42;15.65;;;2.80;;
42098;SDS011;27758;55.900;8.516;2023-02-01T08:58:07;28.38;;;4.97;;
42098;SDS011;27758;55.900;8.516;2023-02-01T09:00:33;17.20;;;2.78;;
42098;SDS011;27758;55.900;8.516;2023-02-01T09:02:59;15.15;;;2.85;;
42098;SDS011;27758;55.900;8.516;2023-02-01T09:05:24;20.75;;;2.88;;
42098;SDS011;27758;55.900;8.516;2023-02-01T09:07:52;14.57;;;2.15;;
42098;SDS011;27758;55.900;8.516;2023-02-01T09:10:18;17.35;;;3.67;;
42098;SDS011;27758;55.900;8.516;2023-02-01T09:12:44;20.83;;;2.67;;
42098;SDS011;27758;55.900;8.516;2023-02-01T09:15:10;16.85;;;2.88;;
42098;SDS011;27758;55.900;8.516;2023-02-01T09:17:36;16.35;;;3.67;;
42098;SDS011;27758;55.900;8.516;2023-02-01T09:20:02;18.75;;;3.35;;
42098;SDS011;27758;55.900;8.516;2023-02-01T09:22:28;18.58;;;3.20;;
42098;SDS011;27758;55.900;8.516;2023-02-01T09:24:54;23.60;;;3.75;;
42098;SDS011;27758;55.900;8.516;2023-02-01T09:27:19;21.13;;;4.72;;
42098;SDS011;27758;55.900;8.516;2023-02-01T09:29:45;18.98;;;3.55;;
42098;SDS011;27758;55.900;8.516;2023-02-01T09:32:17;23.02;;;3.58;;
42098;SDS011;27758;55.900;8.516;2023-02-01T09:34:46;23.38;;;3.97;;
42098;SDS011;27758;55.900;8.516;2023-02-01T09:37:11;24.92;;;4.57;;
42098;SDS011;27758;55.900;8.516;2023-02-01T09:39:37;24.52;;;4.65;;
42098;SDS011;27758;55.900;8.516;2023-02-01T09:42:18;25.08;;;4.10;;
42098;SDS011;27758;55.900;8.516;2023-02-01T09:47:53;28.88;;;5.30;;
42098;SDS011;27758;55.900;8.516;2023-02-01T09:50:22;29.40;;;4.43;;
42098;SDS011;27758;55.900;8.516;2023-02-01T09:53:09;27.80;;;5.57;;
42098;SDS011;27758;55.900;8.516;2023-02-01T09:56:41;27.85;;;4.95;;
42098;SDS011;27758;55.900;8.516;2023-02-01T09:59:00;31.15;;;5.82;;
42098;SDS011;27758;55.900;8.516;2023-02-01T10:01:29;27.42;;;5.53;;
42098;SDS011;27758;55.900;8.516;2023-02-01T10:03:59;30.30;;;5.45;;
42098;SDS011;27758;55.900;8.516;2023-02-01T10:26:37;37.40;;;7.40;;
42098;SDS011;27758;55.900;8.516;2023-02-01T10:29:19;43.65;;;8.18;;
42098;SDS011;27758;55.900;8.516;2023-02-01T10:31:47;34.42;;;7.28;;
42098;SDS011;27758;55.900;8.516;2023-02-01T10:39:49;31.85;;;6.55;;
42098;SDS011;27758;55.900;8.516;2023-02-01T10:47:16;32.53;;;5.68;;
42098;SDS011;27758;55.900;8.516;2023-02-01T10:52:58;32.97;;;6.20;;
42098;SDS011;27758;55.900;8.516;2023-02-01T10:55:37;33.92;;;6.40;;
42098;SDS011;27758;55.900;8.516;2023-02-01T10:58:04;29.02;;;6.18;;
42098;SDS011;27758;55.900;8.516;2023-02-01T11:08:45;36.78;;;6.72;;
42098;SDS011;27758;55.900;8.516;2023-02-01T11:11:20;35.38;;;6.97;;
42098;SDS011;27758;55.900;8.516;2023-02-01T11:13:56;35.95;;;6.55;;
42098;SDS011;27758;55.900;8.516;2023-02-01T11:16:35;33.97;;;7.13;;
42098;SDS011;27758;55.900;8.516;2023-02-01T11:19:02;27.52;;;6.45;;
42098;SDS011;27758;55.900;8.516;2023-02-01T11:21:28;36.65;;;6.82;;
42098;SDS011;27758;55.900;8.516;2023-02-01T11:23:54;36.78;;;7.45;;
42098;SDS011;27758;55.900;8.516;2023-02-01T11:26:25;39.10;;;7.28;;
42098;SDS011;27758;55.900;8.516;2023-02-01T11:29:11;30.33;;;6.78;;
42098;SDS011;27758;55.900;8.516;2023-02-01T11:31:42;41.47;;;6.65;;
42098;SDS011;27758;55.900;8.516;2023-02-01T11:34:35;42.65;;;8.20;;
42098;SDS011;27758;55.900;8.516;2023-02-01T11:37:02;50.72;;;8.23;;
42098;SDS011;27758;55.900;8.516;2023-02-01T11:39:30;40.40;;;7.82;;
42098;SDS011;27758;55.900;8.516;2023-02-01T11:42:17;34.77;;;6.77;;
42098;SDS011;27758;55.900;8.516;2023-02-01T11:44:43;41.42;;;7.55;;
42098;SDS011;27758;55.900;8.516;2023-02-01T11:49:48;33.35;;;6.57;;
42098;SDS011;27758;55.900;8.516;2023-02-01T11:54:54;38.30;;;8.00;;
42098;SDS011;27758;55.900;8.516;2023-02-01T12:03:38;32.47;;;7.80;;
42098;SDS011;27758;55.900;8.516;2023-02-01T12:09:25;47.90;;;8.88;;
42098;SDS011;27758;55.900;8.516;2023-02-01T12:12:24;41.40;;;7.13;;
42098;SDS011;27758;55.900;8.516;2023-02-01T12:17:53;45.53;;;9.55;;
42098;SDS011;27758;55.900;8.516;2023-02-01T12:29:08;54.05;;;9.20;;
42098;SDS011;27758;55.900;8.516;2023-02-01T12:32:06;58.30;;;8.98;;
42098;SDS011;27758;55.900;8.516;2023-02-01T12:43:03;44.30;;;10.30;;
42098;SDS011;27758;55.900;8.516;2023-02-01T12:48:37;53.88;;;9.15;;
42098;SDS011;27758;55.900;8.516;2023-02-01T12:51:12;53.45;;;9.43;;
42098;SDS011;27758;55.900;8.516;2023-02-01T12:53:47;55.10;;;9.45;;
42098;SDS011;27758;55.900;8.516;2023-02-01T12:57:01;43.67;;;9.02;;
42098;SDS011;27758;55.900;8.516;2023-02-01T12:59:03;43.50;;;9.93;;
42098;SDS011;27758;55.900;8.516;2023-02-01T13:01:35;50.35;;;9.98;;
42098;SDS011;27758;55.900;8.516;2023-02-01T13:04:13;65.60;;;11.70;;
42098;SDS011;27758;55.900;8.516;2023-02-01T13:06:46;49.38;;;10.57;;
42098;SDS011;27758;55.900;8.516;2023-02-01T13:09:44;58.08;;;11.88;;
42098;SDS011;27758;55.900;8.516;2023-02-01T13:12:26;52.28;;;8.70;;
42098;SDS011;27758;55.900;8.516;2023-02-01T13:15:31;53.85;;;9.23;;
42098;SDS011;27758;55.900;8.516;2023-02-01T13:17:54;38.90;;;9.48;;
42098;SDS011;27758;55.900;8.516;2023-02-01T13:23:04;49.10;;;10.00;;
42098;SDS011;27758;55.900;8.516;2023-02-01T13:25:50;55.35;;;10.27;;
42098;SDS011;27758;55.900;8.516;2023-02-01T13:39:41;49.08;;;8.93;;
42098;SDS011;27758;55.900;8.516;2023-02-01T13:44:52;53.30;;;9.15;;
42098;SDS011;27758;55.900;8.516;2023-02-01T13:49:49;48.35;;;8.98;;
42098;SDS011;27758;55.900;8.516;2023-02-01T13:52:27;64.32;;;11.52;;
42098;SDS011;27758;55.900;8.516;2023-02-01T13:55:00;66.03;;;11.23;;
42098;SDS011;27758;55.900;8.516;2023-02-01T13:57:40;56.55;;;11.07;;
42098;SDS011;27758;55.900;8.516;2023-02-01T14:00:23;61.25;;;10.57;;
42098;SDS011;27758;55.900;8.516;2023-02-01T14:23:53;47.00;;;8.15;;
42098;SDS011;27758;55.900;8.516;2023-02-01T14:26:45;42.58;;;8.60;;
42098;SDS011;27758;55.900;8.516;2023-02-01T14:31:47;47.22;;;8.43;;
42098;SDS011;27758;55.900;8.516;2023-02-01T14:44:53;46.88;;;8.02;;
42098;SDS011;27758;55.900;8.516;2023-02-01T14:49:56;43.03;;;8.52;;
42098;SDS011;27758;55.900;8.516;2023-02-01T14:52:32;41.83;;;9.25;;
42098;SDS011;27758;55.900;8.516;2023-02-01T14:55:25;46.15;;;8.30;;
42098;SDS011;27758;55.900;8.516;2023-02-01T14:58:00;44.33;;;8.10;;
42098;SDS011;27758;55.900;8.516;2023-02-01T15:00:30;48.25;;;8.25;;
42098;SDS011;27758;55.900;8.516;2023-02-01T15:03:12;45.50;;;7.82;;
42098;SDS011;27758;55.900;8.516;2023-02-01T15:05:54;43.67;;;6.88;;
42098;SDS011;27758;55.900;8.516;2023-02-01T15:10:58;52.83;;;8.73;;
42098;SDS011;27758;55.900;8.516;2023-02-01T15:13:28;50.55;;;8.50;;
42098;SDS011;27758;55.900;8.516;2023-02-01T15:16:01;45.38;;;9.73;;
42098;SDS011;27758;55.900;8.516;2023-02-01T15:18:27;58.22;;;9.25;;
42098;SDS011;27758;55.900;8.516;2023-02-01T15:20:56;47.72;;;10.90;;
42098;SDS011;27758;55.900;8.516;2023-02-01T15:23:26;45.83;;;8.38;;
42098;SDS011;27758;55.900;8.516;2023-02-01T15:25:53;37.80;;;9.15;;
42098;SDS011;27758;55.900;8.516;2023-02-01T15:28:20;46.38;;;8.27;;
42098;SDS011;27758;55.900;8.516;2023-02-01T15:30:59;64.13;;;10.73;;
42098;SDS011;27758;55.900;8.516;2023-02-01T15:33:27;53.83;;;10.77;;
42098;SDS011;27758;55.900;8.516;2023-02-01T15:38:33;48.10;;;10.35;;
42098;SDS011;27758;55.900;8.516;2023-02-01T15:41:07;47.33;;;9.27;;
42098;SDS011;27758;55.900;8.516;2023-02-01T15:46:10;48.83;;;9.82;;
42098;SDS011;27758;55.900;8.516;2023-02-01T15:48:57;36.95;;;7.03;;
42098;SDS011;27758;55.900;8.516;2023-02-01T15:51:27;50.97;;;9.52;;
42098;SDS011;27758;55.900;8.516;2023-02-01T15:53:59;36.63;;;8.57;;
42098;SDS011;27758;55.900;8.516;2023-02-01T15:56:34;53.47;;;11.20;;
42098;SDS011;27758;55.900;8.516;2023-02-01T15:59:03;49.78;;;8.55;;
42098;SDS011;27758;55.900;8.516;2023-02-01T16:01:37;48.80;;;9.48;;
42098;SDS011;27758;55.900;8.516;2023-02-01T16:06:36;53.78;;;8.65;;
42098;SDS011;27758;55.900;8.516;2023-02-01T16:09:11;46.30;;;8.07;;
42098;SDS011;27758;55.900;8.516;2023-02-01T16:11:46;46.15;;;8.73;;
42098;SDS011;27758;55.900;8.516;2023-02-01T16:14:21;36.80;;;6.88;;
42098;SDS011;27758;55.900;8.516;2023-02-01T16:16:48;49.00;;;9.75;;
42098;SDS011;27758;55.900;8.516;2023-02-01T16:19:14;49.33;;;8.45;;
42098;SDS011;27758;55.900;8.516;2023-02-01T16:21:39;48.28;;;7.28;;
42098;SDS011;27758;55.900;8.516;2023-02-01T16:24:05;45.92;;;7.80;;
42098;SDS011;27758;55.900;8.516;2023-02-01T16:26:31;47.22;;;9.68;;
42098;SDS011;27758;55.900;8.516;2023-02-01T16:28:58;28.52;;;6.78;;
42098;SDS011;27758;55.900;8.516;2023-02-01T16:31:30;32.78;;;6.72;;
42098;SDS011;27758;55.900;8.516;2023-02-01T16:34:06;37.08;;;7.55;;
42098;SDS011;27758;55.900;8.516;2023-02-01T16:36:35;35.88;;;6.60;;
42098;SDS011;27758;55.900;8.516;2023-02-01T16:39:01;36.08;;;7.70;;
42098;SDS011;27758;55.900;8.516;2023-02-01T16:41:28;35.30;;;7.43;;
42098;SDS011;27758;55.900;8.516;2023-02-01T16:43:54;46.42;;;7.65;;
42098;SDS011;27758;55.900;8.516;2023-02-01T16:46:21;37.08;;;7.10;;
42098;SDS011;27758;55.900;8.516;2023-02-01T16:48:54;38.47;;;7.07;;
42098;SDS011;27758;55.900;8.516;2023-02-01T16:51:23;44.92;;;8.93;;
42098;SDS011;27758;55.900;8.516;2023-02-01T16:53:51;27.60;;;6.23;;
42098;SDS011;27758;55.900;8.516;2023-02-01T16:56:22;33.97;;;7.63;;
42098;SDS011;27758;55.900;8.516;2023-02-01T16:58:54;32.00;;;7.93;;
42098;SDS011;27758;55.900;8.516;2023-02-01T17:01:20;30.38;;;6.55;;
42098;SDS011;27758;55.900;8.516;2023-02-01T17:03:46;34.13;;;7.15;;
42098;SDS011;27758;55.900;8.516;2023-02-01T17:06:13;58.63;;;8.93;;
42098;SDS011;27758;55.900;8.516;2023-02-01T17:08:42;37.63;;;8.30;;
42098;SDS011;27758;55.900;8.516;2023-02-01T17:11:11;37.03;;;6.80;;
42098;SDS011;27758;55.900;8.516;2023-02-01T17:13:40;64.05;;;9.52;;
42098;SDS011;27758;55.900;8.516;2023-02-01T17:16:19;53.72;;;7.85;;
42098;SDS011;27758;55.900;8.516;2023-02-01T17:18:54;41.55;;;7.28;;
42098;SDS011;27758;55.900;8.516;2023-02-01T17:21:29;42.55;;;7.43;;
42098;SDS011;27758;55.900;8.516;2023-02-01T17:24:00;60.55;;;8.82;;
42098;SDS011;27758;55.900;8.516;2023-02-01T17:26:26;48.83;;;8.63;;
42098;SDS011;27758;55.900;8.516;2023-02-01T17:28:51;53.72;;;8.70;;
42098;SDS011;27758;55.900;8.516;2023-02-01T17:31:17;48.50;;;11.35;;
42098;SDS011;27758;55.900;8.516;2023-02-01T17:33:43;53.47;;;10.52;;
42098;SDS011;27758;55.900;8.516;2023-02-01T17:36:11;55.38;;;11.07;;
42098;SDS011;27758;55.900;8.516;2023-02-01T17:38:38;52.72;;;10.27;;
42098;SDS011;27758;55.900;8.516;2023-02-01T17:41:05;51.50;;;9.98;;
42098;SDS011;27758;55.900;8.516;2023-02-01T17:43:30;45.45;;;9.25;;
42098;SDS011;27758;55.900;8.516;2023-02-01T17:45:57;37.58;;;7.90;;
42098;SDS011;27758;55.900;8.516;2023-02-01T17:48:35;35.50;;;6.57;;
42098;SDS011;27758;55.900;8.516;2023-02-01T17:51:00;45.97;;;7.50;;
42098;SDS011;27758;55.900;8.516;2023-02-01T17:53:28;50.05;;;7.05;;
42098;SDS011;27758;55.900;8.516;2023-02-01T17:55:54;36.90;;;7.60;;
42098;SDS011;27758;55.900;8.516;2023-02-01T17:58:22;54.92;;;8.20;;
42098;SDS011;27758;55.900;8.516;2023-02-01T18:00:48;45.50;;;8.23;;
42098;SDS011;27758;55.900;8.516;2023-02-01T18:03:27;54.10;;;9.70;;
42098;SDS011;27758;55.900;8.516;2023-02-01T18:05:57;53.72;;;8.95;;
42098;SDS011;27758;55.900;8.516;2023-02-01T18:08:24;42.65;;;7.63;;